Time;durP1;ratioP1;P1;durP2;ratioP2;P2;SDS_P1;SDS_P2;PMS_P1;PMS_P2;Temp;Humidity;BMP_temperature;BMP_pressure;BME280_temperature;BME280_humidity;BME280_pressure;Samples;Min_cycle;Max_cycle;Signal;HPM_P1;HPM_P2
2021/08/25 00:00:40;;;;;;;10.25;4.97;;;;;;;13.05;58.57;100133.59;5050732;28;20025;-52
2021/08/25 00:03:06;;;;;;;10.07;5.07;;;;;;;13.04;58.69;100141.75;5043493;28;20095;-53
2021/08/25 00:05:31;;;;;;;8.43;4.43;;;;;;;13.03;58.71;100146.31;5029662;28;20045;-56
2021/08/25 00:07:57;;;;;;;8.63;5.20;;;;;;;13.02;58.62;100144.59;5030385;28;20036;-53
2021/08/25 00:10:22;;;;;;;9.27;4.90;;;;;;;12.59;58.44;100075.72;5030609;28;20542;-55
2021/08/25 00:12:48;;;;;;;9.80;5.35;;;;;;;12.97;58.40;100144.13;5030763;28;20434;-54
2021/08/25 00:15:13;;;;;;;11.80;5.00;;;;;;;12.93;58.69;100140.00;5030575;28;20025;-51
2021/08/25 00:17:39;;;;;;;9.25;5.30;;;;;;;12.91;58.61;100136.59;5030521;28;20040;-52
2021/08/25 00:20:05;;;;;;;8.63;4.85;;;;;;;12.90;58.55;100129.50;5030876;28;20897;-55
2021/08/25 00:22:31;;;;;;;9.73;5.03;;;;;;;12.89;58.19;100133.19;5042952;28;20029;-53
2021/08/25 00:24:56;;;;;;;10.55;5.65;;;;;;;12.88;57.45;100126.13;5030224;28;20033;-55
2021/08/25 00:27:21;;;;;;;11.85;4.85;;;;;;;12.83;57.28;100121.13;5030767;28;20037;-56
2021/08/25 00:29:47;;;;;;;8.20;4.63;;;;;;;12.87;56.97;100127.94;5030347;28;20041;-57
2021/08/25 00:32:12;;;;;;;11.70;5.03;;;;;;;12.91;56.76;100128.53;5030865;28;20041;-56
2021/08/25 00:34:38;;;;;;;9.20;4.78;;;;;;;12.87;56.14;100130.63;5030223;28;20470;-52
2021/08/25 00:37:03;;;;;;;9.52;4.63;;;;;;;12.89;55.83;100133.19;5029927;28;20061;-54
2021/08/25 00:39:29;;;;;;;9.38;5.05;;;;;;;12.89;56.16;100131.34;5030476;28;20029;-52
2021/08/25 00:41:54;;;;;;;8.73;4.95;;;;;;;12.91;55.69;100132.09;5030614;28;20076;-55
2021/08/25 00:44:20;;;;;;;9.40;4.85;;;;;;;12.89;55.92;100133.19;5030031;28;20080;-53
2021/08/25 00:46:46;;;;;;;8.50;4.10;;;;;;;12.86;56.10;100128.91;5030415;28;20033;-54
2021/08/25 00:49:14;;;;;;;9.18;4.82;;;;;;;12.89;55.71;100128.66;5030873;28;20040;-54
2021/08/25 00:51:43;;;;;;;9.68;4.68;;;;;;;12.91;55.81;100136.59;5030609;28;20128;-51
2021/08/25 00:54:09;;;;;;;8.73;5.07;;;;;;;12.88;55.23;100131.50;5029666;28;20136;-54
2021/08/25 00:56:46;;;;;;;7.38;4.50;;;;;;;12.92;55.04;100139.16;5030157;28;20030;-54
2021/08/25 00:59:13;;;;;;;7.90;4.63;;;;;;;12.94;54.73;100139.00;5029232;28;20034;-54
2021/08/25 01:02:00;;;;;;;9.50;5.25;;;;;;;12.98;54.77;100136.94;5030174;28;20088;-53
2021/08/25 01:04:36;;;;;;;9.90;4.15;;;;;;;13.00;54.31;100138.47;5029846;28;20120;-55
2021/08/25 01:07:03;;;;;;;8.07;4.50;;;;;;;12.96;54.82;100136.22;5030194;28;20113;-54
2021/08/25 01:09:29;;;;;;;9.93;4.72;;;;;;;12.95;54.81;100139.88;5029755;28;20080;-53
2021/08/25 01:11:59;;;;;;;8.05;4.45;;;;;;;12.92;55.18;100131.09;5030132;28;20033;-56
2021/08/25 01:14:25;;;;;;;7.75;4.25;;;;;;;12.92;55.36;100143.66;5029783;28;20347;-56
2021/08/25 01:16:51;;;;;;;9.38;4.90;;;;;;;12.93;55.41;100142.69;5033025;28;20040;-54
2021/08/25 01:19:22;;;;;;;7.10;4.38;;;;;;;12.97;55.31;100138.75;5033640;28;20477;-54
2021/08/25 01:21:48;;;;;;;9.02;4.40;;;;;;;12.75;55.38;100116.41;5033727;28;20091;-51
2021/08/25 01:24:16;;;;;;;9.20;4.97;;;;;;;12.89;55.61;100133.19;5033911;28;20033;-54
2021/08/25 01:26:42;;;;;;;10.10;4.95;;;;;;;12.85;56.31;100131.75;5033465;28;20112;-53
2021/08/25 01:29:26;;;;;;;10.65;5.57;;;;;;;12.89;56.01;100146.63;5033345;28;20117;-56
2021/08/25 01:31:53;;;;;;;14.30;5.38;;;;;;;12.77;56.42;100137.78;5033284;28;20046;-55
2021/08/25 01:34:18;;;;;;;10.75;5.28;;;;;;;12.71;56.71;100131.09;5033403;28;20128;-56
2021/08/25 01:36:45;;;;;;;11.10;5.20;;;;;;;12.68;57.16;100142.09;5033168;28;20160;-54
2021/08/25 01:39:10;;;;;;;11.68;5.55;;;;;;;12.64;57.02;100124.53;5033507;28;20040;-59
2021/08/25 01:41:36;;;;;;;11.77;5.30;;;;;;;12.63;57.23;100130.88;5033471;28;20517;-56
2021/08/25 01:44:03;;;;;;;10.98;5.00;;;;;;;12.62;57.15;100129.19;5032897;28;20033;-54
2021/08/25 01:46:33;;;;;;;14.90;5.15;;;;;;;12.62;57.18;100131.88;5033569;28;20033;-54
2021/08/25 01:48:59;;;;;;;10.40;5.30;;;;;;;12.53;57.33;100132.63;5033568;28;20061;-53
2021/08/25 01:51:26;;;;;;;8.63;4.40;;;;;;;12.54;57.53;100139.69;5032710;28;20057;-53
2021/08/25 01:53:52;;;;;;;9.93;5.15;;;;;;;12.50;57.77;100136.44;5032633;28;20052;-54
2021/08/25 01:56:19;;;;;;;9.98;5.63;;;;;;;12.46;57.94;100135.84;5033556;28;20406;-55
2021/08/25 01:58:44;;;;;;;9.65;5.20;;;;;;;12.42;57.71;100131.72;5033360;28;20049;-58
2021/08/25 02:01:10;;;;;;;10.45;4.65;;;;;;;12.25;57.53;100108.09;5032720;28;20660;-57
2021/08/25 02:03:35;;;;;;;8.82;4.60;;;;;;;12.37;57.50;100133.06;5031432;28;20115;-54
2021/08/25 02:06:00;;;;;;;8.75;4.70;;;;;;;12.37;57.55;100136.63;5033282;28;20104;-51
2021/08/25 02:08:26;;;;;;;7.35;4.30;;;;;;;12.35;57.31;100131.38;5032676;28;20033;-55
2021/08/25 02:10:51;;;;;;;9.05;4.78;;;;;;;12.34;57.81;100128.81;5032263;28;20029;-68
2021/08/25 02:13:17;;;;;;;9.00;4.75;;;;;;;12.34;57.56;100134.19;5033133;28;20022;-51
2021/08/25 02:15:42;;;;;;;8.90;4.05;;;;;;;12.34;57.58;100128.81;5033259;28;20108;-56
2021/08/25 02:18:08;;;;;;;8.13;5.00;;;;;;;12.34;57.22;100128.81;5033039;28;20030;-53
2021/08/25 02:20:33;;;;;;;8.65;4.35;;;;;;;12.34;57.07;100128.81;5034638;28;20057;-54
2021/08/25 02:22:59;;;;;;;7.47;4.82;;;;;;;12.26;57.13;100117.84;5052006;28;20029;-57
2021/08/25 02:25:24;;;;;;;10.23;4.97;;;;;;;12.27;57.11;100125.78;5052977;28;20053;-52
2021/08/25 02:27:50;;;;;;;9.43;4.47;;;;;;;12.24;57.05;100128.72;5051983;28;20040;-59
2021/08/25 02:30:15;;;;;;;9.75;5.07;;;;;;;12.20;57.36;100124.59;5052141;28;20048;-56
2021/08/25 02:32:42;;;;;;;9.55;4.95;;;;;;;12.15;57.53;100130.34;5051986;28;20412;-56
2021/08/25 02:35:11;;;;;;;9.75;5.18;;;;;;;12.17;57.39;100125.69;5052608;28;20041;-54
2021/08/25 02:37:37;;;;;;;11.63;4.40;;;;;;;12.09;57.64;100135.34;5052434;28;20098;-58
2021/08/25 02:40:08;;;;;;;9.63;4.63;;;;;;;12.03;57.55;100125.97;5052081;28;20473;-57
2021/08/25 02:42:33;;;;;;;8.52;4.68;;;;;;;11.97;58.01;100131.81;5052216;28;20035;-51
2021/08/25 02:44:59;;;;;;;8.20;4.65;;;;;;;11.86;57.69;100109.41;5052592;28;20033;-58
2021/08/25 02:47:24;;;;;;;7.65;4.45;;;;;;;11.97;57.91;100127.31;5052417;28;20029;-61
2021/08/25 02:49:50;;;;;;;10.05;4.85;;;;;;;11.94;57.75;100132.94;5051889;28;20021;-57
2021/08/25 02:52:15;;;;;;;8.75;4.30;;;;;;;11.91;57.34;100127.78;5051755;28;20032;-56
2021/08/25 02:54:41;;;;;;;10.38;5.00;;;;;;;11.95;57.66;100131.97;5051756;28;20075;-55
2021/08/25 02:57:06;;;;;;;7.50;4.22;;;;;;;11.94;57.43;100127.56;5051804;28;20108;-51
2021/08/25 02:59:31;;;;;;;9.88;4.70;;;;;;;11.96;57.21;100130.13;5051218;28;20059;-53
2021/08/25 03:01:57;;;;;;;7.45;4.40;;;;;;;11.95;57.20;100123.03;5051518;28;20033;-55
2021/08/25 03:04:22;;;;;;;7.90;4.63;;;;;;;11.81;56.93;100098.19;5051621;28;20548;-54
2021/08/25 03:06:48;;;;;;;8.95;4.63;;;;;;;12.03;57.27;100136.72;5051486;28;20097;-52
2021/08/25 03:09:13;;;;;;;11.50;4.75;;;;;;;12.06;57.32;100131.94;5051050;28;20021;-54
2021/08/25 03:11:39;;;;;;;9.45;4.78;;;;;;;12.16;57.34;100133.88;5051327;28;20465;-53
2021/08/25 03:14:05;;;;;;;9.77;5.22;;;;;;;12.23;57.11;100135.09;5051197;28;20082;-52
2021/08/25 03:16:31;;;;;;;10.32;5.28;;;;;;;12.31;56.92;100137.13;5051239;28;20479;-56
2021/08/25 03:18:56;;;;;;;12.48;5.15;;;;;;;12.39;56.99;100141.84;5050968;28;20025;-58
2021/08/25 03:21:22;;;;;;;9.38;5.30;;;;;;;12.48;56.69;100136.56;5041237;28;20033;-53
2021/08/25 03:23:47;;;;;;;12.23;5.57;;;;;;;12.57;56.37;100123.34;5030975;28;20110;-54
2021/08/25 03:26:13;;;;;;;10.82;5.47;;;;;;;12.69;56.45;100129.53;5031359;28;20034;-56
2021/08/25 03:28:38;;;;;;;14.35;5.47;;;;;;;12.80;56.48;100123.25;5030141;28;20031;-53
2021/08/25 03:31:04;;;;;;;11.85;5.90;;;;;;;12.92;56.02;100132.91;5030430;28;20228;-55
2021/08/25 03:33:30;;;;;;;14.90;6.30;;;;;;;13.09;55.33;100127.94;5030971;28;20041;-56
2021/08/25 03:35:55;;;;;;;12.18;5.78;;;;;;;13.28;55.13;100122.66;5031706;28;20478;-55
2021/08/25 03:38:21;;;;;;;12.10;5.65;;;;;;;13.81;53.69;100131.53;5030370;28;20033;-53
2021/08/25 03:40:46;;;;;;;12.10;6.07;;;;;;;14.78;50.46;100129.06;5030413;28;20111;-57
2021/08/25 03:43:12;;;;;;;13.07;6.30;;;;;;;15.83;47.76;100131.69;5030057;28;20533;-54
2021/08/25 03:45:37;;;;;;;12.90;6.00;;;;;;;16.89;45.15;100105.88;5030864;28;20351;-54
2021/08/25 03:48:03;;;;;;;12.50;6.93;;;;;;;17.78;42.47;100105.69;5030410;28;20060;-57
2021/08/25 03:50:28;;;;;;;12.10;6.40;;;;;;;18.57;40.73;100087.38;5030964;28;20029;-59
2021/08/25 03:52:54;;;;;;;17.00;6.55;;;;;;;19.41;38.98;100097.94;5031785;28;20471;-60
2021/08/25 03:55:19;;;;;;;12.52;7.10;;;;;;;20.10;37.47;100101.00;5030480;28;20084;-59
2021/08/25 03:57:45;;;;;;;16.45;6.72;;;;;;;20.68;36.43;100087.81;5030830;28;20052;-60
2021/08/25 04:00:10;;;;;;;13.85;7.43;;;;;;;21.26;35.26;100094.59;5031020;28;20036;-56
2021/08/25 04:02:36;;;;;;;10.80;6.72;;;;;;;21.91;34.09;100092.09;5031123;28;20116;-54
2021/08/25 04:05:01;;;;;;;12.10;7.22;;;;;;;22.38;32.27;100095.31;5030240;28;20424;-51
2021/08/25 04:07:27;;;;;;;12.82;8.18;;;;;;;22.53;32.29;100099.91;5030374;28;20358;-55
2021/08/25 04:09:52;;;;;;;13.75;7.80;;;;;;;22.96;31.22;100085.31;5030914;28;20426;-56
2021/08/25 04:12:18;;;;;;;14.25;7.13;;;;;;;23.50;30.12;100084.59;5031134;28;20029;-56
2021/08/25 04:14:43;;;;;;;15.07;7.13;;;;;;;24.11;29.36;100093.06;5030467;28;20033;-55
2021/08/25 04:17:09;;;;;;;14.07;7.13;;;;;;;24.63;28.57;100084.31;5030437;28;20450;-55
2021/08/25 04:19:34;;;;;;;14.13;7.47;;;;;;;25.21;27.87;100085.53;5031120;28;20373;-58
2021/08/25 04:22:00;;;;;;;12.05;7.07;;;;;;;25.68;26.73;100085.38;5045263;28;20384;-56
2021/08/25 04:24:27;;;;;;;15.82;7.97;;;;;;;26.08;25.60;100073.38;5048816;28;20032;-60
2021/08/25 04:26:53;;;;;;;13.50;7.50;;;;;;;26.56;25.53;100090.41;5050070;28;20029;-55
2021/08/25 04:29:19;;;;;;;13.15;7.53;;;;;;;26.96;24.57;100084.56;5050705;28;20033;-53
2021/08/25 04:31:44;;;;;;;18.50;7.53;;;;;;;27.20;24.31;100082.00;5050251;28;20485;-58
2021/08/25 04:34:10;;;;;;;14.50;7.32;;;;;;;27.80;23.58;100078.56;5049932;28;20493;-57
2021/08/25 04:36:36;;;;;;;12.10;7.80;;;;;;;28.30;22.63;100078.53;5049715;28;20040;-56
2021/08/25 04:39:02;;;;;;;13.13;8.20;;;;;;;28.89;22.00;100080.53;5050669;28;20029;-59
2021/08/25 04:41:28;;;;;;;12.82;8.20;;;;;;;29.46;21.20;100070.81;5050837;28;20473;-57
2021/08/25 04:43:53;;;;;;;17.58;7.88;;;;;;;29.99;20.77;100067.97;5049982;28;20078;-57
2021/08/25 04:46:19;;;;;;;12.95;8.20;;;;;;;30.46;19.96;100076.03;5049747;28;20139;-51
2021/08/25 04:48:44;;;;;;;15.43;8.43;;;;;;;30.86;18.88;100067.81;5049733;28;20029;-54
2021/08/25 04:51:11;;;;;;;15.98;7.63;;;;;;;31.38;18.24;100060.28;5052441;28;20056;-55
2021/08/25 04:53:38;;;;;;;14.45;7.88;;;;;;;31.81;17.90;100064.13;5053628;28;20029;-52
2021/08/25 04:56:04;;;;;;;12.93;6.65;;;;;;;32.44;16.97;100063.66;5051948;28;20025;-55
2021/08/25 04:58:29;;;;;;;14.98;7.47;;;;;;;32.98;16.69;100053.50;5052368;28;20048;-57
2021/08/25 05:00:55;;;;;;;13.27;7.10;;;;;;;33.48;16.23;100067.09;5053330;28;20024;-52
2021/08/25 05:03:20;;;;;;;12.52;6.75;;;;;;;33.89;15.32;100061.69;5053983;28;20713;-57
2021/08/25 05:05:45;;;;;;;9.80;6.43;;;;;;;34.39;14.13;100063.97;5053342;28;20102;-56
2021/08/25 05:08:11;;;;;;;7.43;5.70;;;;;;;34.89;14.00;100057.84;5053531;28;20120;-56
2021/08/25 05:10:36;;;;;;;7.28;5.47;;;;;;;35.13;13.33;100051.69;5053522;28;20032;-57
2021/08/25 05:13:02;;;;;;;8.75;5.43;;;;;;;35.43;12.97;100063.81;5051669;28;20036;-66
2021/08/25 05:15:27;;;;;;;8.07;5.72;;;;;;;35.75;12.71;100055.03;5053955;28;20446;-56
2021/08/25 05:17:53;;;;;;;7.90;5.68;;;;;;;36.08;12.20;100051.00;5052787;28;20444;-54
2021/08/25 05:20:18;;;;;;;8.40;5.57;;;;;;;36.51;12.22;100059.53;5052830;28;20037;-52
2021/08/25 05:22:45;;;;;;;8.77;5.40;;;;;;;36.60;11.70;100065.34;5033722;28;20105;-53
2021/08/25 05:25:11;;;;;;;10.23;5.80;;;;;;;37.05;12.03;100062.41;5033062;28;20113;-59
2021/08/25 05:27:37;;;;;;;9.18;6.45;;;;;;;37.74;11.50;100061.28;5033471;28;20120;-56
2021/08/25 05:30:04;;;;;;;8.68;6.45;;;;;;;38.54;10.79;100071.81;5033411;28;20053;-65
2021/08/25 05:32:30;;;;;;;8.75;6.03;;;;;;;38.89;10.14;100059.13;5033124;28;20049;-52
2021/08/25 05:34:55;;;;;;;8.27;5.75;;;;;;;39.49;9.84;100048.19;5032653;28;20458;-54
2021/08/25 05:37:21;;;;;;;7.82;5.93;;;;;;;40.11;8.88;100060.81;5033263;28;20106;-58
2021/08/25 05:39:46;;;;;;;7.88;5.85;;;;;;;40.17;8.83;100042.69;5032967;28;20049;-58
2021/08/25 05:42:12;;;;;;;10.90;6.07;;;;;;;40.04;9.09;100049.22;5032372;28;20096;-59
2021/08/25 05:44:37;;;;;;;8.05;5.88;;;;;;;40.21;8.83;100048.50;5032609;28;20025;-57
2021/08/25 05:47:03;;;;;;;6.82;5.93;;;;;;;40.32;8.78;100041.50;5033830;28;20575;-51
2021/08/25 05:49:29;;;;;;;8.93;5.97;;;;;;;40.60;8.68;100041.34;5033240;28;20089;-58
2021/08/25 05:51:54;;;;;;;10.82;6.35;;;;;;;40.96;8.21;100039.53;5032438;28;20068;-55
2021/08/25 05:54:20;;;;;;;10.13;5.72;;;;;;;41.62;7.58;100035.13;5032756;28;20060;-55
2021/08/25 05:56:45;;;;;;;8.18;6.13;;;;;;;42.30;7.55;100026.16;5032839;28;20025;-56
2021/08/25 05:59:11;;;;;;;7.78;6.43;;;;;;;42.67;7.43;100022.13;5032670;28;20061;-55
2021/08/25 06:01:36;;;;;;;8.05;6.22;;;;;;;42.97;6.73;100031.47;5031799;28;20037;-56
2021/08/25 06:04:02;;;;;;;6.57;5.90;;;;;;;43.07;6.74;100032.25;5033019;28;20112;-57
2021/08/25 06:06:30;;;;;;;7.75;6.63;;;;;;;43.19;6.80;100035.16;5032844;28;20119;-58
2021/08/25 06:08:55;;;;;;;9.88;6.75;;;;;;;43.02;6.60;100030.44;5032755;28;20033;-57
2021/08/25 06:11:21;;;;;;;7.40;6.28;;;;;;;43.42;6.72;100018.78;5032514;28;20172;-59
2021/08/25 06:13:46;;;;;;;7.43;6.68;;;;;;;43.98;6.19;100028.16;5057243;28;20029;-60
2021/08/25 06:16:11;;;;;;;8.68;6.32;;;;;;;44.54;6.22;100024.13;5042922;28;20043;-60
2021/08/25 06:18:37;;;;;;;9.00;5.65;;;;;;;44.98;5.56;100021.59;5044178;28;20029;-58
2021/08/25 06:21:03;;;;;;;10.40;6.43;;;;;;;45.33;5.35;100020.28;5040370;28;20025;-59
2021/08/25 06:23:28;;;;;;;6.82;6.00;;;;;;;45.51;5.62;100025.69;5040843;28;20028;-60
2021/08/25 06:25:53;;;;;;;7.47;6.13;;;;;;;45.33;5.31;100008.16;5040628;28;20029;-58
2021/08/25 06:28:19;;;;;;;9.02;5.55;;;;;;;45.17;5.25;100012.50;5041244;28;20024;-57
2021/08/25 06:30:45;;;;;;;8.85;6.13;;;;;;;45.37;5.18;100017.59;5041131;28;20056;-56
2021/08/25 06:33:11;;;;;;;6.55;5.93;;;;;;;45.35;5.25;100006.63;5042043;28;20037;-58
2021/08/25 06:35:36;;;;;;;7.47;5.63;;;;;;;45.79;4.77;99994.59;5036923;28;20029;-58
2021/08/25 06:38:02;;;;;;;8.45;5.93;;;;;;;46.32;4.85;99996.50;5032293;28;20060;-58
2021/08/25 06:40:27;;;;;;;8.18;6.15;;;;;;;46.69;4.40;99996.25;5031228;28;20428;-56
2021/08/25 06:42:53;;;;;;;6.53;5.05;;;;;;;46.80;4.27;99992.88;5031510;28;20044;-57
2021/08/25 06:45:18;;;;;;;11.77;5.70;;;;;;;47.05;4.36;100004.00;5030972;28;20030;-55
2021/08/25 06:47:43;;;;;;;6.65;5.93;;;;;;;47.54;3.74;100014.84;5031976;28;20476;-57
2021/08/25 06:50:09;;;;;;;6.43;5.75;;;;;;;47.82;3.52;100015.84;5031442;28;20501;-59
2021/08/25 06:52:35;;;;;;;6.50;5.80;;;;;;;47.69;3.53;100016.00;5031242;28;20110;-56
2021/08/25 06:55:00;;;;;;;8.18;5.93;;;;;;;47.76;3.71;100014.50;5030837;28;20037;-56
2021/08/25 06:57:26;;;;;;;6.82;6.13;;;;;;;47.71;3.78;100018.44;5031392;28;20029;-55
2021/08/25 06:59:51;;;;;;;6.93;6.32;;;;;;;48.03;3.57;100004.13;5030909;28;20052;-56
2021/08/25 07:02:16;;;;;;;7.38;5.93;;;;;;;48.10;3.45;100004.25;5031228;28;20042;-57
2021/08/25 07:04:45;;;;;;;6.70;6.07;;;;;;;47.55;3.34;100005.16;5031526;28;20055;-56
2021/08/25 07:07:14;;;;;;;7.10;6.40;;;;;;;46.91;3.79;100002.47;5031275;28;20041;-57
2021/08/25 07:09:40;;;;;;;7.35;6.53;;;;;;;46.99;4.20;100007.09;5029739;28;20509;-59
2021/08/25 07:12:06;;;;;;;7.82;6.13;;;;;;;47.41;3.90;100004.81;5030872;28;20083;-58
2021/08/25 07:14:33;;;;;;;7.32;6.63;;;;;;;47.71;3.20;100007.94;5029452;28;20385;-58
2021/08/25 07:16:59;;;;;;;6.40;5.80;;;;;;;48.04;3.69;100016.28;5030061;28;20432;-61
2021/08/25 07:19:24;;;;;;;6.03;5.43;;;;;;;47.96;3.50;100013.28;5030488;28;20037;-57
2021/08/25 07:21:50;;;;;;;7.75;6.18;;;;;;;47.69;3.72;100006.66;5042631;28;20079;-63
2021/08/25 07:24:15;;;;;;;9.15;6.35;;;;;;;47.03;3.65;100004.38;5050094;28;20377;-59
2021/08/25 07:26:42;;;;;;;6.00;5.43;;;;;;;46.39;4.21;100010.00;5050427;28;20469;-60
2021/08/25 07:29:07;;;;;;;6.70;6.00;;;;;;;46.51;4.51;100003.47;5049918;28;20519;-65
2021/08/25 07:31:33;;;;;;;8.68;5.82;;;;;;;46.49;4.09;100000.13;5050066;28;20530;-57
2021/08/25 07:33:58;;;;;;;7.28;6.57;;;;;;;45.83;4.43;99987.06;5050076;28;20049;-63
2021/08/25 07:36:24;;;;;;;7.85;6.22;;;;;;;44.90;4.88;99996.25;5050269;28;20107;-60
2021/08/25 07:38:50;;;;;;;9.23;6.40;;;;;;;44.72;5.18;99990.84;5049457;28;20178;-60
2021/08/25 07:41:16;;;;;;;6.70;6.00;;;;;;;44.20;5.46;100003.56;5050141;28;20021;-61
2021/08/25 07:43:42;;;;;;;6.93;6.03;;;;;;;44.69;5.11;99986.75;5050550;28;20106;-60
2021/08/25 07:46:07;;;;;;;8.32;6.13;;;;;;;44.21;5.32;99991.94;5038830;28;20048;-59
2021/08/25 07:48:33;;;;;;;7.78;6.43;;;;;;;44.26;5.68;99980.44;5030373;28;20040;-57
2021/08/25 07:50:58;;;;;;;8.55;6.30;;;;;;;44.22;5.43;99984.28;5030242;28;20025;-57
2021/08/25 07:53:24;;;;;;;8.48;6.65;;;;;;;44.12;5.33;99975.09;5045870;28;20028;-58
2021/08/25 07:55:49;;;;;;;6.45;5.72;;;;;;;43.39;5.55;99982.84;5069976;28;20153;-57
2021/08/25 07:58:15;;;;;;;8.00;6.68;;;;;;;41.37;7.21;99983.34;5070490;28;20033;-57
2021/08/25 08:00:41;;;;;;;10.18;6.75;;;;;;;40.70;8.04;99972.06;5070659;28;20024;-57
2021/08/25 08:03:07;;;;;;;11.20;6.78;;;;;;;40.41;7.50;99937.78;5050788;28;20360;-57
2021/08/25 08:05:33;;;;;;;13.32;6.95;;;;;;;40.22;7.84;99982.84;5036212;28;20022;-52
2021/08/25 08:07:59;;;;;;;10.52;6.28;;;;;;;39.69;7.83;99970.41;5040538;28;20029;-60
2021/08/25 08:10:24;;;;;;;8.40;6.32;;;;;;;38.70;8.25;99980.03;5048511;28;20025;-56
2021/08/25 08:12:50;;;;;;;10.25;6.57;;;;;;;36.66;9.44;99955.41;5044791;28;20041;-57
2021/08/25 08:15:16;;;;;;;8.65;6.00;;;;;;;34.65;11.14;99983.38;5040137;28;20123;-61
2021/08/25 08:17:45;;;;;;;9.85;5.95;;;;;;;32.71;12.92;99979.59;5042909;28;20457;-60
2021/08/25 08:20:15;;;;;;;8.98;5.78;;;;;;;30.94;14.43;99984.47;5038965;28;20029;-61
2021/08/25 08:22:41;;;;;;;10.25;6.32;;;;;;;29.69;15.41;99991.81;5038485;28;20111;-63
2021/08/25 08:25:07;;;;;;;10.65;6.57;;;;;;;28.85;15.86;99985.66;5039760;28;20665;-60
2021/08/25 08:27:32;;;;;;;9.48;6.07;;;;;;;28.21;16.99;99977.03;5045005;28;20069;-60
2021/08/25 08:29:58;;;;;;;9.43;6.10;;;;;;;27.84;17.22;99966.13;5037833;28;20026;-61
2021/08/25 08:32:23;;;;;;;11.15;6.80;;;;;;;27.46;18.03;99959.88;5045629;28;20034;-60
2021/08/25 08:34:49;;;;;;;9.30;6.10;;;;;;;27.19;18.75;99962.13;5050139;28;20254;-61
2021/08/25 08:37:14;;;;;;;9.68;6.38;;;;;;;26.75;18.90;99963.03;5043151;28;20045;-59
2021/08/25 08:39:40;;;;;;;8.75;6.03;;;;;;;26.25;19.42;99963.09;5041548;28;20041;-56
2021/08/25 08:42:06;;;;;;;10.35;5.97;;;;;;;25.92;20.40;99954.88;5046082;28;20033;-60
2021/08/25 08:44:33;;;;;;;10.15;6.00;;;;;;;25.60;20.60;99951.31;5046056;28;20381;-54
2021/08/25 08:46:58;;;;;;;10.20;6.18;;;;;;;25.36;21.19;99956.47;5042900;28;20037;-57
2021/08/25 08:49:24;;;;;;;9.25;5.63;;;;;;;25.20;21.40;99957.81;5049830;28;20347;-56
2021/08/25 08:51:51;;;;;;;12.80;6.18;;;;;;;25.04;21.76;99959.97;5042016;28;20076;-64
2021/08/25 08:54:19;;;;;;;9.95;6.10;;;;;;;25.00;21.75;99961.47;5047194;28;20051;-61
2021/08/25 08:56:44;;;;;;;10.10;6.47;;;;;;;24.92;21.52;99945.28;5045440;28;20075;-60
2021/08/25 08:59:10;;;;;;;12.35;6.72;;;;;;;24.77;21.59;99946.38;5046602;28;20128;-57
2021/08/25 09:01:35;;;;;;;9.63;6.63;;;;;;;24.63;22.05;99939.22;5038999;28;20533;-59
2021/08/25 09:04:01;;;;;;;15.68;6.40;;;;;;;24.57;22.28;99948.28;5041320;28;20897;-56
2021/08/25 09:06:43;;;;;;;10.63;6.78;;;;;;;24.76;21.41;99969.31;5045133;28;20032;-60
2021/08/25 09:09:10;;;;;;;14.90;7.00;;;;;;;24.44;22.35;99965.56;5044817;28;20571;-57
2021/08/25 09:11:48;;;;;;;12.82;6.78;;;;;;;24.32;22.48;99930.63;5046049;28;20361;-57
2021/08/25 09:14:13;;;;;;;11.57;6.05;;;;;;;24.09;23.50;99950.19;5039803;28;20473;-58
2021/08/25 09:16:39;;;;;;;15.45;7.25;;;;;;;23.93;23.33;99949.56;5038992;28;20048;-59
2021/08/25 09:19:13;;;;;;;12.05;6.57;;;;;;;24.07;23.74;99953.16;5043102;28;20458;-59
2021/08/25 09:21:50;;;;;;;10.67;6.13;;;;;;;24.00;23.21;99949.56;5046177;28;20500;-58
2021/08/25 09:24:22;;;;;;;15.68;7.43;;;;;;;23.88;23.96;99948.50;5041410;28;20055;-61
2021/08/25 09:27:06;;;;;;;13.40;6.35;;;;;;;23.75;23.69;99944.69;5041499;28;20033;-61
2021/08/25 09:29:32;;;;;;;11.15;6.55;;;;;;;23.31;23.85;99929.66;5040727;28;20384;-65
2021/08/25 09:31:57;;;;;;;12.88;6.53;;;;;;;22.92;24.76;99908.28;5043974;28;20045;-58
2021/08/25 09:34:31;;;;;;;12.50;6.10;;;;;;;23.14;24.90;99945.53;5043916;28;20087;-55
2021/08/25 09:37:15;;;;;;;14.00;5.50;;;;;;;23.46;24.01;99943.16;5045601;28;20021;-57
2021/08/25 09:39:47;;;;;;;9.98;5.65;;;;;;;23.40;24.98;99938.53;5044870;28;20034;-58
2021/08/25 09:42:16;;;;;;;11.55;5.75;;;;;;;23.34;25.08;99941.00;5041998;28;20099;-62
2021/08/25 09:44:42;;;;;;;10.93;5.88;;;;;;;23.02;25.59;99909.75;5042157;28;20033;-57
2021/08/25 09:47:08;;;;;;;12.35;5.72;;;;;;;23.09;25.83;99927.03;5037697;28;20119;-57
2021/08/25 09:49:34;;;;;;;11.02;5.65;;;;;;;23.09;25.98;99927.88;5045538;28;20136;-55
2021/08/25 09:51:59;;;;;;;13.23;6.22;;;;;;;23.22;26.20;99927.06;5042091;28;20033;-53
2021/08/25 09:54:25;;;;;;;15.30;6.15;;;;;;;23.33;25.62;99914.75;5037338;28;20496;-57
2021/08/25 09:56:53;;;;;;;10.85;5.95;;;;;;;23.42;25.80;99915.41;5042118;28;20065;-55
2021/08/25 09:59:20;;;;;;;10.75;6.35;;;;;;;23.32;25.87;99915.78;5041424;28;20038;-55
2021/08/25 10:01:47;;;;;;;14.15;6.38;;;;;;;23.14;26.26;99910.88;5037618;28;20025;-55
2021/08/25 10:04:16;;;;;;;13.63;6.10;;;;;;;23.12;26.15;99915.69;5040790;28;20037;-57
2021/08/25 10:06:58;;;;;;;19.70;7.20;;;;;;;23.15;26.22;99919.91;5042921;28;20102;-56
2021/08/25 10:09:24;;;;;;;16.95;6.80;;;;;;;23.24;25.90;99910.50;5039580;28;20041;-59
2021/08/25 10:11:59;;;;;;;12.40;6.47;;;;;;;23.46;25.65;99915.84;5044098;28;20072;-60
2021/08/25 10:14:30;;;;;;;14.40;7.63;;;;;;;23.50;25.36;99911.63;5040416;28;20049;-56
2021/08/25 10:16:55;;;;;;;14.63;6.80;;;;;;;23.40;26.06;99903.00;5046442;28;20473;-58
2021/08/25 10:19:37;;;;;;;16.45;7.35;;;;;;;23.62;25.14;99909.13;5065824;28;20023;-51
2021/08/25 10:22:15;;;;;;;11.35;6.60;;;;;;;23.61;25.47;99911.00;5044387;28;20115;-57
2021/08/25 10:24:52;;;;;;;15.00;7.07;;;;;;;23.63;25.40;99905.34;5063611;28;20441;-54
2021/08/25 10:27:19;;;;;;;18.25;7.60;;;;;;;23.39;25.92;99895.84;5040849;28;20033;-63
2021/08/25 10:30:02;;;;;;;13.60;7.78;;;;;;;23.48;25.39;99900.06;5064397;28;20040;-56
2021/08/25 10:32:37;;;;;;;14.20;8.00;;;;;;;23.20;26.18;99901.03;5066088;28;20055;-55
2021/08/25 10:35:18;;;;;;;13.55;7.28;;;;;;;23.18;26.53;99900.41;5055404;28;20392;-53
2021/08/25 10:37:45;;;;;;;17.58;7.43;;;;;;;22.94;26.87;99891.69;5060250;28;20461;-51
2021/08/25 10:40:11;;;;;;;15.38;7.25;;;;;;;22.91;26.67;99897.56;5060916;28;20033;-54
2021/08/25 10:42:52;;;;;;;13.93;7.25;;;;;;;23.08;26.61;99893.41;5067312;28;20127;-54
2021/08/25 10:45:46;;;;;;;11.15;6.78;;;;;;;23.36;25.82;99884.28;5035485;28;20107;-55
2021/08/25 10:48:13;;;;;;;13.25;7.07;;;;;;;23.22;26.80;99888.84;5052511;28;20041;-52
2021/08/25 10:50:55;;;;;;;12.07;7.07;;;;;;;23.47;26.22;99895.66;5067075;28;20376;-61
2021/08/25 10:53:30;;;;;;;14.90;6.90;;;;;;;23.61;26.30;99900.09;5055023;28;20111;-55
2021/08/25 10:56:13;;;;;;;13.32;7.72;;;;;;;23.70;26.10;99894.44;5061936;28;20465;-54
2021/08/25 10:58:47;;;;;;;14.88;6.80;;;;;;;23.49;26.03;99904.50;5067116;28;20094;-57
2021/08/25 11:01:19;;;;;;;12.38;6.43;;;;;;;23.41;26.51;99889.13;5038961;28;20024;-53
2021/08/25 11:03:48;;;;;;;14.68;7.20;;;;;;;23.24;27.05;99896.84;5062973;28;20500;-57
2021/08/25 11:06:29;;;;;;;15.30;6.80;;;;;;;23.40;26.66;99905.75;5056126;28;20025;-55
2021/08/25 11:09:15;;;;;;;11.18;6.82;;;;;;;23.23;26.53;99893.25;5043405;28;20032;-56
2021/08/25 11:11:53;;;;;;;14.68;5.90;;;;;;;23.02;27.35;99891.50;5037737;28;20030;-57
2021/08/25 11:14:21;;;;;;;11.90;6.63;;;;;;;22.90;27.57;99882.22;5045540;28;20862;-59
2021/08/25 11:16:47;;;;;;;14.95;7.22;;;;;;;22.92;28.09;99889.16;5044072;28;20033;-62
2021/08/25 11:19:24;;;;;;;13.60;7.20;;;;;;;23.01;27.34;99910.81;5038887;28;20477;-53
2021/08/25 11:21:50;;;;;;;13.95;7.70;;;;;;;22.73;28.00;99893.50;5036648;28;20041;-58
2021/08/25 11:24:16;;;;;;;14.27;8.23;;;;;;;22.53;28.15;99887.09;5038695;28;20025;-55
2021/08/25 11:26:42;;;;;;;12.23;7.00;;;;;;;22.26;29.45;99890.44;5038421;28;20071;-58